Time;durP1;ratioP1;P1;durP2;ratioP2;P2;SDS_P1;SDS_P2;PMS_P1;PMS_P2;Temp;Humidity;BMP_temperature;BMP_pressure;BME280_temperature;BME280_humidity;BME280_pressure;Samples;Min_cycle;Max_cycle;Signal;HPM_P1;HPM_P2
2022/01/18 00:00:09;;;;;;;12.82;2.35;;;5.20;99.90;;;;;;4975306;28;20018;-73
2022/01/18 00:02:35;;;;;;;19.67;2.97;;;5.20;99.90;;;;;;4286434;28;10000154;-73
2022/01/18 00:05:00;;;;;;;12.00;2.20;;;5.10;99.90;;;;;;4974036;28;20027;-73
2022/01/18 00:07:26;;;;;;;17.13;2.10;;;5.00;99.90;;;;;;4983297;28;20414;-73
2022/01/18 00:09:52;;;;;;;13.57;2.00;;;5.00;99.90;;;;;;4984257;28;20364;-73
2022/01/18 00:17:53;;;;;;;17.50;2.70;;;4.90;99.90;;;;;;4969779;28;20049;-73
2022/01/18 00:20:36;;;;;;;12.68;2.45;;;4.90;99.90;;;;;;4985509;28;20113;-73
2022/01/18 00:23:02;;;;;;;14.45;2.40;;;4.90;99.90;;;;;;4979202;28;20096;-73
2022/01/18 00:25:28;;;;;;;7.88;1.92;;;5.00;99.90;;;;;;4976224;28;20391;-73
2022/01/18 00:27:54;;;;;;;11.63;2.72;;;4.90;99.90;;;;;;4977368;28;20038;-72
2022/01/18 00:30:53;;;;;;;12.85;2.38;;;5.00;99.90;;;;;;4970243;28;20030;-73
2022/01/18 00:35:39;;;;;;;15.05;2.63;;;4.90;99.90;;;;;;4976537;28;20062;-73
2022/01/18 00:38:15;;;;;;;15.55;2.75;;;4.90;99.90;;;;;;4979060;28;20026;-73
2022/01/18 00:40:41;;;;;;;8.10;2.35;;;4.90;99.90;;;;;;4974529;28;20110;-73
2022/01/18 00:43:06;;;;;;;13.55;2.33;;;4.90;99.90;;;;;;4973811;28;20101;-73
2022/01/18 00:45:32;;;;;;;11.98;2.97;;;4.90;99.90;;;;;;4977232;28;20709;-73
2022/01/18 00:47:58;;;;;;;15.30;2.90;;;4.90;99.90;;;;;;4976207;28;20052;-73
2022/01/18 00:50:26;;;;;;;12.93;2.60;;;4.90;99.90;;;;;;4977055;28;20093;-73
2022/01/18 00:52:53;;;;;;;15.95;2.90;;;4.90;99.90;;;;;;4980480;28;20200;-73
2022/01/18 00:55:19;;;;;;;12.70;3.03;;;4.90;99.90;;;;;;4986373;28;20061;-73
2022/01/18 00:57:45;;;;;;;11.88;2.80;;;4.90;99.90;;;;;;4981327;28;20062;-73
2022/01/18 01:00:11;;;;;;;12.48;3.60;;;4.90;99.90;;;;;;4982545;28;20054;-73
2022/01/18 01:02:37;;;;;;;16.20;3.30;;;4.90;99.90;;;;;;4980260;28;20023;-73
2022/01/18 01:05:03;;;;;;;11.98;3.13;;;4.90;99.90;;;;;;4981556;28;20035;-73
2022/01/18 01:07:29;;;;;;;15.77;3.45;;;4.90;99.90;;;;;;4979564;28;20023;-73
2022/01/18 01:09:54;;;;;;;15.23;3.72;;;4.90;99.90;;;;;;4982144;28;20034;-73
2022/01/18 01:12:23;;;;;;;14.68;3.28;;;4.90;99.90;;;;;;4977934;28;20815;-73
2022/01/18 01:14:53;;;;;;;11.10;2.67;;;4.90;99.90;;;;;;4986375;28;20038;-72
2022/01/18 01:18:11;;;;;;;13.65;3.00;;;4.80;99.90;;;;;;4981201;28;20030;-73
2022/01/18 01:46:39;;;;;;;11.45;2.67;;;4.90;99.90;;;;;;4989427;28;19910;-73
2022/01/18 01:49:09;;;;;;;15.80;2.90;;;4.90;99.90;;;;;;4981706;28;20034;-73
2022/01/18 01:51:34;;;;;;;15.52;2.47;;;4.90;99.90;;;;;;4985219;28;20038;-73
2022/01/18 01:54:06;;;;;;;11.10;1.88;;;4.90;99.90;;;;;;4981329;28;20069;-72
2022/01/18 01:56:32;;;;;;;17.50;2.80;;;5.00;99.90;;;;;;4978536;28;20034;-73
2022/01/18 01:58:58;;;;;;;9.95;1.90;;;5.10;99.90;;;;;;4980630;28;20546;-73
2022/01/18 02:01:24;;;;;;;11.85;2.22;;;5.20;99.90;;;;;;4983845;28;20037;-73
2022/01/18 02:03:50;;;;;;;9.02;1.80;;;5.20;99.90;;;;;;4981606;28;20034;-73
2022/01/18 02:06:17;;;;;;;11.85;2.35;;;5.10;99.90;;;;;;4984750;28;20038;-73
2022/01/18 02:08:43;;;;;;;7.93;2.08;;;5.10;99.90;;;;;;4985460;28;20035;-72
2022/01/18 02:11:10;;;;;;;13.85;2.58;;;5.10;99.90;;;;;;4982527;28;20053;-73
2022/01/18 02:13:36;;;;;;;10.65;2.20;;;5.00;99.90;;;;;;4983302;28;20101;-73
2022/01/18 02:23:58;;;;;;;8.63;2.13;;;5.00;99.90;;;;;;4982551;28;20037;-72
2022/01/18 02:26:24;;;;;;;12.30;2.40;;;5.00;99.90;;;;;;4986275;28;20030;-73
2022/01/18 02:28:50;;;;;;;15.32;3.13;;;5.00;99.90;;;;;;4983859;28;20042;-72
2022/01/18 02:31:18;;;;;;;11.63;2.25;;;5.00;99.90;;;;;;4980935;28;20427;-72
2022/01/18 02:33:43;;;;;;;9.90;1.98;;;5.00;99.90;;;;;;4980813;28;20042;-73
2022/01/18 02:36:09;;;;;;;10.50;2.30;;;5.00;99.90;;;;;;4977055;28;20022;-73
2022/01/18 02:38:35;;;;;;;8.98;1.88;;;4.90;99.90;;;;;;4974136;28;20027;-72
2022/01/18 02:41:01;;;;;;;11.30;2.47;;;4.90;99.90;;;;;;4985001;28;23205;-73
2022/01/18 02:46:11;;;;;;;8.15;1.88;;;4.90;99.90;;;;;;4981786;28;20498;-73
2022/01/18 02:48:37;;;;;;;10.63;2.28;;;4.90;99.90;;;;;;4981883;28;20109;-72
2022/01/18 02:51:04;;;;;;;12.32;2.30;;;5.00;99.90;;;;;;4982372;28;20465;-73
2022/01/18 02:53:30;;;;;;;13.40;2.50;;;4.90;99.90;;;;;;4977393;28;20084;-73
2022/01/18 02:55:57;;;;;;;13.35;2.50;;;4.90;99.90;;;;;;4980777;28;20041;-73
2022/01/18 02:58:27;;;;;;;14.50;2.55;;;4.90;99.90;;;;;;4974606;28;20034;-73
2022/01/18 03:03:37;;;;;;;6.85;1.80;;;4.90;99.90;;;;;;4977871;28;20057;-73
2022/01/18 03:06:05;;;;;;;9.35;2.35;;;4.90;99.90;;;;;;4980027;28;20035;-72
2022/01/18 03:08:31;;;;;;;11.27;2.55;;;4.90;99.90;;;;;;4979337;28;20030;-72
2022/01/18 03:10:57;;;;;;;11.88;2.63;;;4.90;99.90;;;;;;4980759;28;20098;-72
2022/01/18 03:13:23;;;;;;;12.43;2.67;;;4.90;99.90;;;;;;4975334;28;20064;-72
2022/01/18 03:15:49;;;;;;;11.27;3.05;;;4.90;99.90;;;;;;4978126;28;20262;-73
2022/01/18 03:18:15;;;;;;;7.68;2.22;;;4.90;99.90;;;;;;4982594;28;20453;-73
2022/01/18 03:20:41;;;;;;;8.32;2.53;;;4.90;99.90;;;;;;4973775;28;20019;-73
2022/01/18 03:23:11;;;;;;;12.25;2.72;;;4.80;99.90;;;;;;4974566;28;20120;-73
2022/01/18 03:28:06;;;;;;;12.25;2.58;;;5.10;99.90;;;;;;4977875;28;20041;-73
2022/01/18 03:30:33;;;;;;;15.40;2.95;;;5.10;99.90;;;;;;4982598;28;20177;-73
2022/01/18 03:32:58;;;;;;;9.27;2.78;;;5.00;99.90;;;;;;4975396;28;20030;-73
2022/01/18 03:35:24;;;;;;;12.43;2.30;;;5.00;99.90;;;;;;4980943;28;20027;-73
2022/01/18 03:37:50;;;;;;;5.22;2.30;;;5.00;99.90;;;;;;4979721;28;20168;-73
2022/01/18 03:40:16;;;;;;;9.50;2.75;;;4.90;99.90;;;;;;4979256;28;20482;-72
2022/01/18 03:42:45;;;;;;;8.10;2.83;;;4.90;99.90;;;;;;4979621;28;20030;-73
2022/01/18 03:45:14;;;;;;;9.63;3.47;;;4.90;99.90;;;;;;4977865;28;20130;-73
2022/01/18 03:47:41;;;;;;;8.02;2.45;;;4.90;99.90;;;;;;4977865;28;20037;-73
2022/01/18 03:50:09;;;;;;;6.68;2.45;;;4.90;99.90;;;;;;4977183;28;20054;-73
2022/01/18 03:52:34;;;;;;;11.25;2.53;;;4.90;99.90;;;;;;4971207;28;20054;-73
2022/01/18 03:55:01;;;;;;;7.32;2.28;;;4.90;99.90;;;;;;4978617;28;20054;-73
2022/01/18 03:57:26;;;;;;;12.32;2.83;;;4.80;99.90;;;;;;4974366;28;20068;-72
2022/01/18 03:59:52;;;;;;;7.15;2.55;;;4.90;99.90;;;;;;4972220;28;20751;-73
2022/01/18 04:02:17;;;;;;;5.65;2.33;;;4.80;99.90;;;;;;4980037;28;20026;-73
2022/01/18 04:04:43;;;;;;;10.85;2.85;;;4.80;99.90;;;;;;4979929;28;20479;-73
2022/01/18 04:07:09;;;;;;;8.55;2.30;;;4.70;99.90;;;;;;4980723;28;20113;-73
2022/01/18 04:09:35;;;;;;;10.77;2.60;;;4.80;99.90;;;;;;4977111;28;20043;-73
2022/01/18 04:12:01;;;;;;;3.95;1.90;;;4.60;99.90;;;;;;4969735;28;20031;-73
2022/01/18 04:14:27;;;;;;;10.93;2.58;;;4.60;99.90;;;;;;4975368;28;20030;-73
2022/01/18 04:17:09;;;;;;;6.90;2.22;;;4.60;99.90;;;;;;4973552;28;20305;-73
2022/01/18 04:27:46;;;;;;;6.05;2.00;;;4.50;99.90;;;;;;4974523;28;20137;-73
2022/01/18 04:30:12;;;;;;;8.55;2.60;;;4.50;99.90;;;;;;4974772;28;20062;-73
2022/01/18 04:32:38;;;;;;;5.82;1.85;;;4.50;99.90;;;;;;4976296;28;20749;-73
2022/01/18 04:35:04;;;;;;;5.15;2.28;;;4.50;99.90;;;;;;4975429;28;20096;-73
2022/01/18 04:37:30;;;;;;;9.60;2.15;;;;;;;;;;4976602;28;20027;-73
2022/01/18 04:39:57;;;;;;;4.97;1.95;;;4.60;99.90;;;;;;4978909;28;20398;-73
2022/01/18 04:50:26;;;;;;;6.03;2.30;;;4.50;99.90;;;;;;4974329;28;20041;-73
2022/01/18 04:52:52;;;;;;;6.70;2.50;;;4.60;99.90;;;;;;4975699;28;20023;-73
2022/01/18 04:55:18;;;;;;;7.00;2.25;;;4.50;99.90;;;;;;4975349;28;20090;-73
2022/01/18 04:57:53;;;;;;;4.85;2.05;;;4.50;99.90;;;;;;4976448;28;20489;-72
2022/01/18 05:00:23;;;;;;;15.13;3.50;;;4.50;99.90;;;;;;4975392;28;20023;-73
2022/01/18 05:02:49;;;;;;;11.65;3.72;;;4.60;99.90;;;;;;4972682;28;20037;-73
2022/01/18 05:05:28;;;;;;;11.55;3.65;;;4.60;99.90;;;;;;4977311;28;20019;-72
2022/01/18 05:07:55;;;;;;;16.80;4.20;;;4.60;99.90;;;;;;4976771;28;20027;-73
2022/01/18 05:10:23;;;;;;;15.35;5.95;;;4.60;99.90;;;;;;4976683;28;20081;-73
2022/01/18 05:12:52;;;;;;;12.15;4.60;;;4.60;99.90;;;;;;4977413;28;20105;-72
2022/01/18 05:23:22;;;;;;;10.27;4.05;;;4.60;99.90;;;;;;4978303;28;20027;-73
2022/01/18 05:25:47;;;;;;;8.85;3.60;;;4.60;99.90;;;;;;4983619;28;20031;-73
2022/01/18 05:28:13;;;;;;;11.48;3.90;;;4.60;99.90;;;;;;4978011;28;20047;-73
2022/01/18 05:30:40;;;;;;;11.02;3.50;;;4.60;99.90;;;;;;4982012;28;20045;-72
2022/01/18 05:33:06;;;;;;;6.97;2.80;;;4.60;99.90;;;;;;4978029;28;20033;-73
2022/01/18 05:35:33;;;;;;;8.18;2.67;;;4.60;99.90;;;;;;4974846;28;20124;-73
2022/01/18 05:37:58;;;;;;;7.93;2.60;;;4.60;99.90;;;;;;4974598;28;20022;-72
2022/01/18 05:40:24;;;;;;;7.20;2.55;;;4.60;99.90;;;;;;4980350;28;20049;-72
2022/01/18 05:42:50;;;;;;;6.95;2.45;;;4.70;99.90;;;;;;4973681;28;20026;-73
2022/01/18 05:45:17;;;;;;;9.15;2.90;;;4.70;99.90;;;;;;4983468;28;20077;-73
2022/01/18 05:47:43;;;;;;;9.90;2.95;;;4.70;99.90;;;;;;4982181;28;20030;-73
2022/01/18 05:50:10;;;;;;;6.93;2.60;;;4.70;99.90;;;;;;4977666;28;20018;-73
2022/01/18 05:52:35;;;;;;;8.63;3.00;;;4.70;99.90;;;;;;4974584;28;20023;-73
2022/01/18 05:55:02;;;;;;;9.18;3.28;;;4.70;99.90;;;;;;4976696;28;20037;-73
2022/01/18 05:57:28;;;;;;;7.45;2.53;;;4.70;99.90;;;;;;4982755;28;20532;-73
2022/01/18 06:00:00;;;;;;;7.53;2.55;;;4.70;99.90;;;;;;4984125;28;20022;-72
2022/01/18 06:02:48;;;;;;;8.02;2.85;;;4.70;99.90;;;;;;4977193;28;20493;-73
2022/01/18 06:07:58;;;;;;;8.15;2.70;;;4.70;99.90;;;;;;4633135;28;9999950;-73
2022/01/18 06:10:24;;;;;;;9.88;2.95;;;4.70;99.90;;;;;;4979572;28;20026;-73
2022/01/18 06:12:50;;;;;;;10.98;3.53;;;4.70;99.90;;;;;;4983850;28;20475;-73
2022/01/18 06:15:16;;;;;;;13.65;3.60;;;4.70;99.90;;;;;;4973257;28;20042;-73
2022/01/18 06:17:42;;;;;;;10.05;3.25;;;4.70;99.90;;;;;;4982997;28;20030;-73
2022/01/18 06:20:09;;;;;;;6.65;3.17;;;4.70;99.90;;;;;;4976108;28;20030;-73
2022/01/18 06:22:34;;;;;;;10.27;3.30;;;4.70;99.90;;;;;;4967156;28;20042;-73
2022/01/18 06:25:00;;;;;;;10.75;3.22;;;4.70;99.90;;;;;;4970168;28;20037;-73
2022/01/18 06:27:26;;;;;;;12.20;3.25;;;4.60;99.90;;;;;;4979156;28;20055;-73
2022/01/18 06:29:52;;;;;;;10.45;3.22;;;4.60;99.90;;;;;;4976273;28;20114;-73
2022/01/18 06:32:18;;;;;;;10.55;3.40;;;4.60;99.90;;;;;;4978272;28;20034;-73
2022/01/18 06:34:44;;;;;;;7.90;3.05;;;4.70;99.90;;;;;;4979746;28;20038;-73
2022/01/18 06:37:10;;;;;;;12.18;3.08;;;4.70;99.90;;;;;;4983465;28;20025;-73
2022/01/18 06:39:37;;;;;;;8.52;3.40;;;4.70;99.90;;;;;;4985144;28;20061;-73
2022/01/18 06:42:03;;;;;;;8.35;3.58;;;4.70;99.90;;;;;;4987802;28;20560;-73
2022/01/18 06:44:29;;;;;;;12.43;3.28;;;4.80;99.90;;;;;;4978301;28;20030;-73
2022/01/18 06:46:54;;;;;;;9.82;3.25;;;4.80;99.90;;;;;;4981315;28;20031;-73
2022/01/18 06:49:20;;;;;;;9.95;3.78;;;4.70;99.90;;;;;;4979788;28;20569;-74
2022/01/18 06:51:46;;;;;;;14.45;3.53;;;4.80;99.90;;;;;;4981184;28;20117;-73
2022/01/18 06:54:15;;;;;;;9.35;4.00;;;4.70;99.90;;;;;;4988495;28;20037;-73
2022/01/18 06:56:45;;;;;;;14.60;4.35;;;4.80;99.90;;;;;;4979549;28;20038;-73
2022/01/18 06:59:10;;;;;;;16.35;4.72;;;4.70;99.90;;;;;;4980826;28;20624;-73
2022/01/18 07:01:36;;;;;;;10.70;4.97;;;4.70;99.90;;;;;;4980078;28;20034;-73
2022/01/18 07:04:02;;;;;;;15.50;5.30;;;;;;;;;;4974398;28;20057;-73
2022/01/18 07:06:28;;;;;;;15.68;4.90;;;;;;;;;;4979151;28;20026;-74
2022/01/18 07:08:54;;;;;;;11.90;5.55;;;4.60;99.90;;;;;;4982072;28;20039;-74
2022/01/18 07:11:20;;;;;;;16.65;8.15;;;4.60;99.90;;;;;;4977758;28;20029;-74
2022/01/18 07:13:46;;;;;;;12.77;6.50;;;4.60;99.90;;;;;;4980478;28;20135;-74
2022/01/18 07:16:12;;;;;;;12.32;6.00;;;4.50;99.90;;;;;;4976450;28;20022;-74
2022/01/18 07:18:39;;;;;;;11.50;5.30;;;4.50;99.90;;;;;;4982345;28;20034;-74
2022/01/18 07:21:04;;;;;;;10.52;5.30;;;4.50;99.90;;;;;;4981886;28;20466;-74
2022/01/18 07:23:30;;;;;;;9.95;5.38;;;4.50;99.90;;;;;;4984466;28;20030;-74
2022/01/18 07:25:56;;;;;;;10.23;4.60;;;4.50;99.90;;;;;;4986795;28;20496;-74
2022/01/18 07:28:22;;;;;;;11.13;4.20;;;4.60;99.90;;;;;;4986372;28;20038;-74
2022/01/18 07:30:49;;;;;;;9.27;4.57;;;4.70;99.90;;;;;;4980333;28;20475;-74
2022/01/18 07:33:16;;;;;;;10.15;4.22;;;4.80;99.90;;;;;;4980793;28;20065;-73
2022/01/18 07:35:42;;;;;;;7.57;4.05;;;4.80;99.90;;;;;;4981208;28;20101;-74
2022/01/18 07:38:12;;;;;;;8.85;4.05;;;4.80;99.90;;;;;;4980014;28;20044;-74
2022/01/18 07:40:40;;;;;;;10.07;4.70;;;4.80;99.90;;;;;;4976019;28;20026;-74
2022/01/18 07:43:06;;;;;;;8.65;4.38;;;4.90;99.90;;;;;;4981580;28;20118;-74
2022/01/18 07:45:31;;;;;;;7.72;3.97;;;4.80;99.90;;;;;;4987744;28;20114;-74
2022/01/18 07:47:57;;;;;;;6.03;4.07;;;4.90;99.90;;;;;;4978528;28;20117;-74
2022/01/18 07:50:24;;;;;;;13.60;6.13;;;4.80;99.90;;;;;;4982694;28;20034;-74
2022/01/18 07:52:50;;;;;;;12.93;7.07;;;4.80;99.90;;;;;;4985439;28;20490;-74
2022/01/18 07:55:15;;;;;;;9.95;5.25;;;4.80;99.90;;;;;;4986251;28;20045;-74
2022/01/18 07:57:42;;;;;;;13.10;5.32;;;4.80;99.90;;;;;;4982427;28;20165;-74
2022/01/18 08:00:14;;;;;;;12.88;5.80;;;4.80;99.90;;;;;;4984415;28;20025;-74
2022/01/18 08:02:40;;;;;;;10.68;5.80;;;4.80;99.90;;;;;;4976914;28;20041;-74
2022/01/18 08:05:07;;;;;;;12.13;6.75;;;4.80;99.90;;;;;;4979963;28;20030;-74
2022/01/18 08:07:34;;;;;;;12.85;7.03;;;4.80;99.90;;;;;;4979170;28;20038;-74
2022/01/18 08:10:00;;;;;;;13.90;6.63;;;4.80;99.90;;;;;;4980396;28;20026;-73
2022/01/18 08:12:26;;;;;;;11.35;6.22;;;4.80;99.90;;;;;;4984486;28;20033;-73
2022/01/18 08:14:55;;;;;;;11.82;6.07;;;4.80;99.90;;;;;;4984583;28;20562;-73
2022/01/18 08:17:22;;;;;;;12.00;5.22;;;4.70;99.90;;;;;;4977671;28;20042;-74
2022/01/18 08:19:48;;;;;;;10.77;5.80;;;4.70;99.90;;;;;;4976206;28;20254;-73
2022/01/18 08:22:14;;;;;;;7.82;4.70;;;4.80;99.90;;;;;;4983053;28;20023;-73
2022/01/18 08:24:40;;;;;;;8.95;4.97;;;4.80;99.90;;;;;;4977053;28;20180;-73
2022/01/18 08:27:06;;;;;;;10.30;5.70;;;4.80;99.90;;;;;;4971423;28;20030;-74
2022/01/18 08:29:32;;;;;;;10.73;5.75;;;4.80;99.90;;;;;;4979524;28;20046;-73
2022/01/18 08:31:58;;;;;;;17.02;6.03;;;4.80;99.90;;;;;;4975042;28;20034;-74
2022/01/18 08:34:23;;;;;;;10.38;6.18;;;4.90;99.90;;;;;;4980783;28;20092;-73
2022/01/18 08:36:51;;;;;;;13.25;8.00;;;4.90;99.90;;;;;;4976877;28;20105;-73
2022/01/18 08:39:16;;;;;;;43.92;25.98;;;4.90;99.90;;;;;;4981115;28;20385;-73
2022/01/18 08:41:42;;;;;;;20.08;11.68;;;4.90;99.90;;;;;;4981910;28;20034;-73
2022/01/18 08:44:08;;;;;;;14.38;7.25;;;5.00;99.90;;;;;;4983961;28;20048;-73
2022/01/18 08:46:34;;;;;;;12.05;6.55;;;4.90;99.90;;;;;;4979115;28;20023;-74
2022/01/18 08:48:59;;;;;;;8.65;5.22;;;5.00;99.90;;;;;;4983013;28;20037;-73
2022/01/18 08:51:28;;;;;;;11.40;6.40;;;5.00;99.90;;;;;;4982209;28;20034;-76
2022/01/18 08:53:54;;;;;;;14.07;6.43;;;5.00;99.90;;;;;;4969912;28;20034;-74
2022/01/18 08:56:21;;;;;;;14.88;8.50;;;5.00;99.90;;;;;;4983130;28;20037;-76
2022/01/18 08:58:48;;;;;;;14.55;7.38;;;5.00;99.90;;;;;;4983875;28;20026;-73
2022/01/18 09:01:15;;;;;;;11.50;6.47;;;5.00;99.90;;;;;;4986006;28;20053;-74
2022/01/18 09:03:41;;;;;;;12.13;6.63;;;5.00;99.90;;;;;;4984297;28;20035;-74
2022/01/18 09:06:07;;;;;;;9.30;6.80;;;5.00;99.90;;;;;;4981115;28;20022;-73
2022/01/18 09:08:36;;;;;;;10.38;5.78;;;5.10;99.90;;;;;;4976958;28;20037;-74
2022/01/18 09:11:02;;;;;;;13.10;5.97;;;5.10;99.90;;;;;;4983108;28;20463;-76
2022/01/18 09:13:28;;;;;;;8.63;5.05;;;5.10;99.90;;;;;;4979083;28;21266;-75
2022/01/18 09:15:54;;;;;;;12.32;5.13;;;5.10;99.90;;;;;;4967171;28;20037;-74
2022/01/18 09:18:20;;;;;;;8.90;5.63;;;5.20;99.90;;;;;;4982338;28;20137;-73
2022/01/18 09:20:46;;;;;;;12.15;5.65;;;5.20;99.90;;;;;;4980445;28;20034;-74
2022/01/18 09:23:13;;;;;;;8.60;5.78;;;5.20;99.90;;;;;;4984519;28;20037;-74
2022/01/18 09:25:39;;;;;;;10.05;6.07;;;5.20;99.90;;;;;;4975230;28;20129;-74
2022/01/18 09:28:05;;;;;;;10.55;6.38;;;5.30;99.90;;;;;;4982969;28;20050;-74
2022/01/18 09:30:33;;;;;;;19.10;9.50;;;5.30;99.90;;;;;;4973061;28;20031;-77
2022/01/18 09:32:59;;;;;;;24.35;11.73;;;5.40;99.90;;;;;;4978628;28;20041;-74
2022/01/18 09:35:25;;;;;;;20.17;9.52;;;;;;;;;;4984852;28;20430;-74
2022/01/18 09:37:52;;;;;;;13.20;7.82;;;;;;;;;;4984162;28;20041;-76
2022/01/18 09:40:20;;;;;;;14.45;8.68;;;5.40;99.90;;;;;;4976330;28;20053;-76
2022/01/18 09:42:47;;;;;;;13.20;7.40;;;;;;;;;;4979864;28;20026;-75
2022/01/18 09:45:15;;;;;;;11.55;7.00;;;5.80;99.90;;;;;;4983928;28;20097;-75
2022/01/18 09:47:44;;;;;;;12.95;7.47;;;5.70;99.90;;;;;;4980796;28;20042;-75
2022/01/18 09:50:11;;;;;;;11.40;6.70;;;;;;;;;;4974098;28;20094;-75
2022/01/18 09:52:37;;;;;;;10.52;7.13;;;5.70;99.90;;;;;;4968604;28;20046;-75
2022/01/18 09:55:05;;;;;;;10.50;6.13;;;5.80;99.90;;;;;;4970138;28;20085;-76
2022/01/18 09:57:31;;;;;;;12.88;7.90;;;5.80;99.90;;;;;;4984150;28;20030;-75
2022/01/18 09:59:59;;;;;;;13.23;8.35;;;5.90;99.90;;;;;;4982009;28;20042;-75
2022/01/18 10:02:25;;;;;;;12.82;9.65;;;5.90;99.90;;;;;;4973889;28;20034;-76
2022/01/18 10:04:53;;;;;;;14.50;9.23;;;5.90;99.90;;;;;;4981593;28;20254;-76
2022/01/18 10:07:33;;;;;;;12.02;8.02;;;5.90;99.90;;;;;;4981421;28;20038;-76
2022/01/18 10:10:01;;;;;;;14.05;7.28;;;5.90;99.90;;;;;;4983440;28;20026;-76
2022/01/18 10:12:27;;;;;;;11.68;6.78;;;5.90;99.90;;;;;;4986746;28;20064;-75
2022/01/18 10:14:58;;;;;;;12.70;7.28;;;6.00;99.90;;;;;;4980104;28;20066;-75
2022/01/18 10:17:40;;;;;;;12.60;8.40;;;5.90;99.90;;;;;;4980384;28;20751;-75
2022/01/18 10:20:19;;;;;;;11.90;6.30;;;6.00;99.90;;;;;;4984470;28;20046;-75
2022/01/18 10:22:49;;;;;;;11.32;6.63;;;6.00;99.90;;;;;;4988302;28;20026;-75
2022/01/18 10:25:20;;;;;;;12.57;7.00;;;6.10;99.90;;;;;;4977196;28;20076;-76
2022/01/18 10:27:49;;;;;;;22.23;11.93;;;;;;;;;;4986749;28;20034;-76
2022/01/18 10:30:22;;;;;;;14.02;6.50;;;6.30;99.90;;;;;;4985642;28;20054;-75
2022/01/18 10:33:27;;;;;;;11.05;5.97;;;6.40;99.90;;;;;;4985034;28;20077;-76
2022/01/18 10:36:14;;;;;;;11.20;6.13;;;6.40;99.90;;;;;;4945164;28;20121;-76
2022/01/18 10:38:44;;;;;;;11.80;6.55;;;6.50;99.90;;;;;;4978412;28;20031;-76
2022/01/18 10:41:31;;;;;;;10.90;6.53;;;6.60;99.90;;;;;;4986175;28;20044;-76
2022/01/18 10:44:13;;;;;;;15.45;8.43;;;6.60;99.90;;;;;;4984374;28;20307;-76
2022/01/18 10:46:41;;;;;;;15.57;7.32;;;6.50;99.90;;;;;;4983499;28;20037;-76
2022/01/18 10:49:08;;;;;;;10.70;7.05;;;6.50;99.90;;;;;;4981225;28;20052;-76
2022/01/18 10:51:36;;;;;;;13.90;6.43;;;6.50;99.90;;;;;;4988863;28;20494;-76
2022/01/18 10:54:05;;;;;;;8.13;5.80;;;6.60;99.90;;;;;;4986261;28;20399;-76
2022/01/18 10:56:49;;;;;;;10.82;6.63;;;6.60;99.90;;;;;;4976034;28;20031;-75
2022/01/18 10:59:23;;;;;;;9.07;6.00;;;6.70;99.90;;;;;;4978420;28;20049;-75
2022/01/18 11:02:12;;;;;;;9.98;5.82;;;6.70;99.90;;;;;;4981977;28;20037;-75
2022/01/18 11:04:39;;;;;;;10.27;5.95;;;6.60;99.90;;;;;;4977895;28;20034;-76
2022/01/18 11:07:05;;;;;;;13.30;6.68;;;6.60;99.90;;;;;;4986788;28;20048;-75
2022/01/18 11:09:33;;;;;;;9.20;6.13;;;6.60;99.90;;;;;;4282154;28;10000832;-75
2022/01/18 11:12:00;;;;;;;10.70;5.93;;;6.60;99.90;;;;;;4975684;28;20035;-76
2022/01/18 11:14:27;;;;;;;10.13;5.97;;;6.60;99.90;;;;;;4978621;28;20503;-76
2022/01/18 11:16:56;;;;;;;11.13;6.13;;;6.60;99.90;;;;;;4979347;28;20026;-75
2022/01/18 11:21:52;;;;;;;13.27;6.20;;;6.60;99.90;;;;;;4983486;28;20030;-76
2022/01/18 11:24:19;;;;;;;10.38;5.82;;;6.60;99.90;;;;;;4972091;28;20053;-76
2022/01/18 11:26:46;;;;;;;11.18;6.28;;;6.60;99.90;;;;;;4977517;28;20046;-75
2022/01/18 11:29:16;;;;;;;10.13;6.13;;;6.60;99.90;;;;;;4981359;28;20088;-75
2022/01/18 11:31:49;;;;;;;9.40;5.30;;;6.60;99.90;;;;;;4972249;28;20129;-75
2022/01/18 11:34:46;;;;;;;10.60;5.88;;;6.50;99.90;;;;;;4978858;28;20043;-74
2022/01/18 11:37:12;;;;;;;9.95;5.97;;;6.60;99.90;;;;;;4978492;28;20038;-74
2022/01/18 11:39:38;;;;;;;10.38;5.95;;;6.60;99.90;;;;;;4980072;28;20085;-74
2022/01/18 11:42:10;;;;;;;10.35;5.90;;;6.60;99.90;;;;;;4976470;28;20042;-75
2022/01/18 11:44:36;;;;;;;10.45;5.68;;;6.60;99.90;;;;;;4974764;28;20042;-75
2022/01/18 11:47:04;;;;;;;11.25;5.72;;;6.60;99.90;;;;;;4977934;28;20393;-74
2022/01/18 11:49:33;;;;;;;9.75;5.65;;;6.70;99.90;;;;;;4983732;28;20499;-74
2022/01/18 11:52:37;;;;;;;8.68;5.47;;;6.70;99.90;;;;;;4980155;28;20848;-74
2022/01/18 11:55:04;;;;;;;10.23;5.43;;;6.70;99.90;;;;;;4976165;28;20058;-74
2022/01/18 11:57:30;;;;;;;9.98;5.30;;;6.70;99.90;;;;;;4973277;28;20026;-76
2022/01/18 12:00:23;;;;;;;8.70;4.68;;;6.70;99.90;;;;;;4981038;28;20588;-74
2022/01/18 12:02:54;;;;;;;9.60;4.50;;;6.70;99.90;;;;;;4980642;28;20033;-74
2022/01/18 12:05:21;;;;;;;9.65;3.72;;;6.70;99.90;;;;;;4975923;28;20038;-75
2022/01/18 12:07:52;;;;;;;8.50;4.45;;;6.70;99.90;;;;;;4978326;28;20038;-75
2022/01/18 12:10:32;;;;;;;12.75;5.75;;;6.80;99.90;;;;;;4982818;28;20040;-75
2022/01/18 12:13:13;;;;;;;10.68;5.50;;;6.80;99.90;;;;;;4985183;28;20035;-76
2022/01/18 12:15:46;;;;;;;9.68;5.03;;;6.80;99.90;;;;;;4971820;28;20035;-75
2022/01/18 12:18:21;;;;;;;5.60;3.17;;;6.80;99.90;;;;;;4975729;28;20023;-75
2022/01/18 12:20:50;;;;;;;8.38;4.32;;;6.80;99.90;;;;;;4980730;28;20259;-76
2022/01/18 12:23:32;;;;;;;8.02;3.85;;;6.90;99.90;;;;;;4973759;28;20118;-75
2022/01/18 12:26:10;;;;;;;7.77;4.07;;;6.80;99.90;;;;;;4980842;28;20034;-76
2022/01/18 12:37:07;;;;;;;8.35;5.38;;;6.80;99.90;;;;;;4977101;28;20530;-76
2022/01/18 12:45:05;;;;;;;10.18;5.50;;;6.90;99.90;;;;;;4982845;28;20035;-74
2022/01/18 12:47:31;;;;;;;7.47;4.75;;;;;;;;;;4979984;28;20034;-74
2022/01/18 12:49:57;;;;;;;8.35;5.38;;;;;;;;;;4980912;28;20512;-74
2022/01/18 12:52:23;;;;;;;8.80;5.35;;;;;;;;;;4977742;28;20045;-74
2022/01/18 12:54:50;;;;;;;10.52;4.97;;;;;;;;;;4975301;28;20031;-74
2022/01/18 12:57:22;;;;;;;8.85;5.40;;;;;;;;;;4974323;28;20031;-73
2022/01/18 13:00:02;;;;;;;8.02;4.90;;;7.10;99.90;;;;;;4975352;28;20024;-74
2022/01/18 13:02:28;;;;;;;7.40;4.78;;;7.10;99.90;;;;;;4976612;28;20145;-73
2022/01/18 13:05:00;;;;;;;7.90;4.85;;;7.10;99.90;;;;;;4980425;28;20031;-74
2022/01/18 13:07:26;;;;;;;10.10;4.85;;;7.00;99.90;;;;;;4974624;28;20041;-74
2022/01/18 13:10:08;;;;;;;8.98;4.57;;;7.10;99.90;;;;;;4975502;28;20050;-73
2022/01/18 13:12:37;;;;;;;15.15;4.18;;;7.00;99.90;;;;;;4984578;28;20449;-73
2022/01/18 13:15:06;;;;;;;7.90;3.47;;;7.10;99.90;;;;;;4977462;28;20038;-74
2022/01/18 13:23:49;;;;;;;9.18;3.72;;;7.10;99.90;;;;;;4979816;28;20054;-75
2022/01/18 13:26:15;;;;;;;7.40;3.45;;;7.20;99.90;;;;;;4981751;28;20097;-74
2022/01/18 13:28:41;;;;;;;7.18;4.03;;;7.10;99.90;;;;;;4977811;28;20058;-74
2022/01/18 13:31:22;;;;;;;8.82;3.80;;;7.20;99.90;;;;;;4979010;28;20450;-73
2022/01/18 13:33:55;;;;;;;6.63;3.63;;;7.20;99.90;;;;;;4978494;28;20166;-74
2022/01/18 13:36:21;;;;;;;9.80;4.20;;;7.20;99.90;;;;;;4985329;28;20394;-73
2022/01/18 13:38:47;;;;;;;7.00;3.72;;;7.10;99.90;;;;;;4982138;28;20066;-73
2022/01/18 13:41:13;;;;;;;7.70;4.03;;;7.10;99.90;;;;;;4985281;28;20022;-73
2022/01/18 13:43:39;;;;;;;8.48;4.28;;;7.10;99.90;;;;;;4981594;28;20430;-75
2022/01/18 13:46:06;;;;;;;9.40;4.15;;;7.10;99.90;;;;;;4985799;28;20479;-75
2022/01/18 13:48:33;;;;;;;7.00;3.47;;;7.10;99.90;;;;;;4982285;28;20053;-73
2022/01/18 13:51:14;;;;;;;7.97;3.60;;;7.10;99.90;;;;;;4977210;28;20100;-73
2022/01/18 13:53:41;;;;;;;6.85;4.20;;;7.10;99.90;;;;;;4977634;28;20556;-73
2022/01/18 13:56:15;;;;;;;10.10;4.57;;;7.10;99.90;;;;;;4982758;28;20066;-73
2022/01/18 13:58:47;;;;;;;8.85;4.20;;;7.10;99.90;;;;;;4978912;28;20037;-74
2022/01/18 14:01:17;;;;;;;8.02;4.15;;;7.20;99.90;;;;;;4980529;28;20037;-74
2022/01/18 14:03:48;;;;;;;10.27;5.32;;;7.20;99.90;;;;;;4979348;28;20556;-73
2022/01/18 14:06:17;;;;;;;9.98;4.80;;;7.20;99.90;;;;;;4981026;28;20037;-74
2022/01/18 14:08:48;;;;;;;11.57;5.00;;;7.20;99.90;;;;;;4981366;28;20128;-74
2022/01/18 14:11:25;;;;;;;7.55;4.30;;;7.30;99.90;;;;;;4985693;28;20054;-73
2022/01/18 14:13:53;;;;;;;10.00;4.35;;;7.30;99.90;;;;;;4977418;28;20040;-73
2022/01/18 14:16:29;;;;;;;11.43;4.38;;;7.30;99.90;;;;;;4977487;28;20816;-74
2022/01/18 14:19:06;;;;;;;7.43;4.65;;;7.30;99.90;;;;;;4982293;28;20037;-73
2022/01/18 14:21:37;;;;;;;7.18;3.97;;;7.20;99.90;;;;;;4974651;28;20037;-73
2022/01/18 14:24:15;;;;;;;6.18;3.95;;;7.30;99.90;;;;;;4984966;28;20027;-73
2022/01/18 14:26:53;;;;;;;6.85;3.65;;;7.20;99.90;;;;;;4972141;28;20682;-74
2022/01/18 14:29:24;;;;;;;9.98;4.32;;;7.20;99.90;;;;;;4982185;28;20113;-74
2022/01/18 14:32:05;;;;;;;8.32;3.67;;;7.30;99.90;;;;;;4982789;28;20576;-74
2022/01/18 14:34:33;;;;;;;7.63;3.72;;;7.20;99.90;;;;;;4979643;28;20121;-73
2022/01/18 14:36:59;;;;;;;6.70;3.60;;;7.20;99.90;;;;;;4979557;28;20027;-74
2022/01/18 14:39:25;;;;;;;8.95;3.92;;;7.20;99.90;;;;;;4983042;28;20027;-73
2022/01/18 14:41:59;;;;;;;10.30;4.57;;;7.20;99.90;;;;;;4973266;28;20117;-73